Time;durP1;ratioP1;P1;durP2;ratioP2;P2;SDS_P1;SDS_P2;PMS_P1;PMS_P2;Temp;Humidity;BMP_temperature;BMP_pressure;BME280_temperature;BME280_humidity;BME280_pressure;Samples;Min_cycle;Max_cycle;Signal;HPM_P1;HPM_P2
2022/06/18 00:02:17;;;;;;;6.78;3.88;;;;;;;21.41;62.58;101710.53;5076284;28;20032;-71
2022/06/18 00:04:43;;;;;;;4.07;3.67;;;;;;;21.37;62.79;101706.34;5075553;28;20032;-71
2022/06/18 00:07:13;;;;;;;6.05;4.05;;;;;;;21.26;63.04;101700.78;5075321;28;20055;-71
2022/06/18 00:09:41;;;;;;;8.20;4.18;;;;;;;21.25;64.37;101702.56;5075854;28;20020;-71
2022/06/18 00:15:26;;;;;;;7.35;3.83;;;;;;;21.12;64.07;101701.50;5075181;28;20101;-71
2022/06/18 00:17:52;;;;;;;7.13;3.83;;;;;;;21.09;66.19;101696.38;5075712;28;20016;-71
2022/06/18 00:20:19;;;;;;;9.68;3.83;;;;;;;21.01;64.63;101703.88;5075232;28;20043;-71
2022/06/18 00:22:49;;;;;;;9.52;3.95;;;;;;;20.99;64.91;101695.16;5075461;28;20081;-70
2022/06/18 00:25:33;;;;;;;9.30;4.03;;;;;;;21.01;64.14;101687.97;5075636;28;20532;-70
2022/06/18 00:27:58;;;;;;;9.43;4.03;;;;;;;20.94;65.02;101687.44;5075064;28;20025;-71
2022/06/18 00:30:26;;;;;;;7.30;3.85;;;;;;;20.88;64.95;101686.94;5075648;28;20476;-70
2022/06/18 00:32:51;;;;;;;10.90;4.00;;;;;;;20.83;65.49;101684.53;5075473;28;20048;-71
2022/06/18 00:35:17;;;;;;;5.05;3.80;;;;;;;20.75;65.88;101692.88;5074712;28;20537;-71
2022/06/18 00:37:43;;;;;;;5.78;3.60;;;;;;;20.69;67.01;101692.34;5075271;28;20047;-70
2022/06/18 00:40:12;;;;;;;7.15;4.18;;;;;;;20.73;66.74;101699.19;5075431;28;20028;-71
2022/06/18 00:42:39;;;;;;;6.40;3.92;;;;;;;20.66;67.22;101690.69;5074233;28;20055;-71
2022/06/18 00:45:05;;;;;;;6.05;4.30;;;;;;;20.68;67.55;101690.63;5075623;28;20044;-71
2022/06/18 00:47:41;;;;;;;6.60;3.88;;;;;;;20.55;66.75;101688.63;5075461;28;20498;-70
2022/06/18 00:50:21;;;;;;;5.63;3.90;;;;;;;20.55;66.44;101679.81;5074536;28;20029;-70
2022/06/18 00:52:59;;;;;;;4.95;4.00;;;;;;;20.53;66.88;101687.81;5074789;28;20056;-71
2022/06/18 00:55:39;;;;;;;7.68;4.13;;;;;;;20.41;67.06;101684.94;5074046;28;20097;-71
2022/06/18 00:58:35;;;;;;;7.85;4.00;;;;;;;20.40;66.29;101685.88;5076312;28;20113;-71
2022/06/18 01:01:02;;;;;;;6.47;4.00;;;;;;;20.27;68.28;101689.16;5073751;28;20033;-70
2022/06/18 01:03:31;;;;;;;6.20;4.20;;;;;;;20.27;69.61;101685.63;5074786;28;20415;-71
2022/06/18 01:06:00;;;;;;;7.00;4.40;;;;;;;20.22;69.22;101685.88;5075527;28;20025;-70
2022/06/18 01:08:28;;;;;;;10.15;4.22;;;;;;;20.19;69.40;101674.59;5075685;28;20125;-70
2022/06/18 01:11:02;;;;;;;11.27;4.20;;;;;;;20.18;69.13;101679.03;5074143;28;20460;-71
2022/06/18 01:13:40;;;;;;;10.32;4.57;;;;;;;20.15;69.25;101680.97;5075196;28;20052;-70
2022/06/18 01:16:08;;;;;;;8.65;4.63;;;;;;;20.03;69.48;101671.84;5075365;28;20086;-71
2022/06/18 01:18:34;;;;;;;9.77;4.55;;;;;;;19.99;69.82;101673.78;5074011;28;20027;-71
2022/06/18 01:21:14;;;;;;;10.60;5.00;;;;;;;19.93;70.68;101675.88;5075189;28;20391;-70
2022/06/18 01:23:58;;;;;;;8.63;4.82;;;;;;;19.91;70.50;101672.44;5073645;28;20376;-71
2022/06/18 01:26:23;;;;;;;10.48;4.65;;;;;;;19.85;70.85;101663.03;5075065;28;20039;-70
2022/06/18 01:28:48;;;;;;;12.38;5.40;;;;;;;19.86;70.99;101665.59;5075188;28;20028;-70
2022/06/18 01:31:14;;;;;;;11.77;5.00;;;;;;;19.85;71.04;101669.19;5075057;28;20028;-70
2022/06/18 01:33:40;;;;;;;10.48;5.10;;;;;;;19.80;71.28;101671.19;5074397;28;20476;-70
2022/06/18 01:36:09;;;;;;;11.85;4.75;;;;;;;19.78;71.88;101670.44;5074423;28;20032;-71
2022/06/18 01:38:38;;;;;;;9.43;4.95;;;;;;;19.77;71.90;101679.28;5073770;28;20080;-71
2022/06/18 01:43:58;;;;;;;12.75;5.18;;;;;;;19.72;70.96;101673.38;5075170;28;20047;-71
2022/06/18 01:46:26;;;;;;;11.40;5.45;;;;;;;19.65;71.64;101671.94;5073900;28;20024;-71
2022/06/18 01:48:53;;;;;;;8.77;5.03;;;;;;;19.56;72.44;101669.72;5073823;28;20047;-70
2022/06/18 01:51:24;;;;;;;11.75;5.22;;;;;;;19.49;72.26;101655.94;5073938;28;20035;-71
2022/06/18 01:53:55;;;;;;;10.88;5.65;;;;;;;19.49;72.89;101660.34;5073418;28;20477;-70
2022/06/18 01:56:25;;;;;;;8.90;4.95;;;;;;;19.48;73.10;101666.56;5074102;28;20025;-71
2022/06/18 01:58:57;;;;;;;8.73;5.10;;;;;;;19.46;73.85;101661.38;5072877;28;20029;-70
2022/06/18 02:01:29;;;;;;;9.65;4.85;;;;;;;19.49;73.64;101670.91;5073893;28;20043;-70
2022/06/18 02:03:59;;;;;;;6.72;5.13;;;;;;;19.46;74.28;101663.16;5073685;28;20478;-71
2022/06/18 02:06:25;;;;;;;10.45;5.00;;;;;;;19.44;73.86;101662.34;5072885;28;20461;-70
2022/06/18 02:08:51;;;;;;;10.23;5.35;;;;;;;19.41;73.55;101658.06;5073600;28;20036;-70
2022/06/18 02:11:19;;;;;;;14.40;5.80;;;;;;;19.31;73.77;101655.00;5073693;28;20027;-70
2022/06/18 02:13:48;;;;;;;9.00;5.00;;;;;;;19.31;74.62;101659.44;5072519;28;20056;-70
2022/06/18 02:16:24;;;;;;;9.18;5.88;;;;;;;19.23;74.23;101654.53;5073546;28;20028;-70
2022/06/18 02:18:50;;;;;;;7.43;5.05;;;;;;;19.18;75.36;101661.78;5073549;28;20028;-70
2022/06/18 02:21:19;;;;;;;10.15;5.90;;;;;;;19.11;76.03;101655.94;5072915;28;20033;-70
2022/06/18 02:23:45;;;;;;;11.07;5.55;;;;;;;19.10;75.53;101656.03;5073230;28;20028;-71
2022/06/18 02:26:11;;;;;;;8.55;5.25;;;;;;;19.07;76.34;101654.38;5073423;28;20121;-71
2022/06/18 02:28:40;;;;;;;8.27;5.65;;;;;;;19.04;76.05;101659.78;5072177;28;20112;-71
2022/06/18 02:31:07;;;;;;;9.75;5.40;;;;;;;19.06;76.38;101662.34;5073560;28;20027;-70
2022/06/18 02:33:49;;;;;;;10.48;5.68;;;;;;;19.05;75.61;101663.28;5072577;28;20021;-71
2022/06/18 02:36:16;;;;;;;6.88;5.32;;;;;;;18.98;76.31;101653.94;5073479;28;20039;-70
2022/06/18 02:38:43;;;;;;;8.25;5.70;;;;;;;19.00;76.07;101666.16;5072934;28;20103;-70
2022/06/18 02:41:10;;;;;;;11.63;5.63;;;;;;;19.01;76.31;101659.09;5072396;28;20060;-70
2022/06/18 02:43:36;;;;;;;10.63;6.15;;;;;;;18.98;76.32;101664.50;5072777;28;20460;-71
2022/06/18 02:46:03;;;;;;;7.45;5.85;;;;;;;18.98;76.21;101652.16;5073290;28;20052;-71
2022/06/18 02:48:32;;;;;;;7.07;5.70;;;;;;;18.91;77.09;101661.28;5072208;28;20021;-71
2022/06/18 02:50:59;;;;;;;8.35;6.28;;;;;;;18.89;77.90;101657.84;5073089;28;20052;-70
2022/06/18 02:53:26;;;;;;;9.52;6.10;;;;;;;18.85;77.94;101659.75;5072838;28;20052;-70
2022/06/18 02:55:55;;;;;;;12.88;7.03;;;;;;;18.83;78.34;101653.69;5071816;28;20033;-70
2022/06/18 02:58:27;;;;;;;9.10;6.20;;;;;;;18.82;78.65;101656.41;5073105;28;20020;-70
2022/06/18 03:01:01;;;;;;;9.48;6.28;;;;;;;18.81;77.89;101657.34;5072800;28;20033;-70
2022/06/18 03:03:35;;;;;;;11.85;6.13;;;;;;;18.86;77.71;101653.53;5072309;28;20031;-70
2022/06/18 03:06:01;;;;;;;12.55;6.82;;;;;;;18.78;78.09;101654.84;5073539;28;20056;-70
2022/06/18 03:08:29;;;;;;;14.02;6.93;;;;;;;18.77;78.36;101647.81;5072905;28;20121;-71
2022/06/18 03:13:38;;;;;;;11.43;6.38;;;;;;;18.78;77.95;101657.47;5072685;28;20186;-70
2022/06/18 03:16:08;;;;;;;12.30;6.68;;;;;;;18.78;78.23;101662.75;5071973;28;20942;-70
2022/06/18 03:18:34;;;;;;;11.57;6.32;;;;;;;18.81;78.01;101652.91;5071738;28;20538;-70
2022/06/18 03:21:17;;;;;;;11.82;7.28;;;;;;;18.78;77.65;101663.63;5072950;28;20017;-71
2022/06/18 03:23:44;;;;;;;10.48;6.35;;;;;;;18.80;77.96;101659.13;5071809;28;20028;-71
2022/06/18 03:26:10;;;;;;;14.55;6.45;;;;;;;18.78;78.09;101662.75;5072794;28;20035;-70
2022/06/18 03:28:36;;;;;;;11.20;6.70;;;;;;;18.76;78.07;101664.59;5072342;28;20384;-70
2022/06/18 03:31:02;;;;;;;14.50;7.20;;;;;;;18.76;78.35;101654.03;5071852;28;20020;-71
2022/06/18 03:33:27;;;;;;;10.57;6.72;;;;;;;18.77;78.35;101661.91;5072768;28;20503;-70
2022/06/18 03:35:53;;;;;;;15.38;7.35;;;;;;;18.78;77.92;101662.75;5072344;28;20064;-70
2022/06/18 03:38:19;;;;;;;27.67;8.20;;;;;;;18.77;77.90;101667.19;5071976;28;20032;-70
2022/06/18 03:40:45;;;;;;;27.02;8.05;;;;;;;18.78;78.26;101666.25;5072209;28;20056;-70
2022/06/18 03:43:12;;;;;;;18.48;8.25;;;;;;;18.77;78.13;101667.19;5072457;28;20376;-70
2022/06/18 03:45:42;;;;;;;23.60;8.15;;;;;;;18.79;78.51;101664.47;5071431;28;20111;-70
2022/06/18 03:48:16;;;;;;;20.63;7.80;;;;;;;18.77;78.81;101661.03;5072605;28;20024;-70
2022/06/18 03:50:41;;;;;;;13.02;7.45;;;;;;;18.85;78.38;101659.75;5072396;28;20032;-70
2022/06/18 03:53:07;;;;;;;17.27;7.93;;;;;;;18.88;79.19;101664.91;5071346;28;20049;-71
2022/06/18 03:55:33;;;;;;;18.52;7.38;;;;;;;18.91;78.19;101662.13;5072053;28;20109;-70
2022/06/18 03:57:58;;;;;;;14.32;7.50;;;;;;;18.94;78.04;101661.16;5071462;28;20052;-70
2022/06/18 04:00:23;;;;;;;12.85;7.03;;;;;;;18.94;78.17;101669.06;5072303;28;20040;-70
2022/06/18 04:02:49;;;;;;;11.27;7.20;;;;;;;18.91;78.39;101659.50;5071990;28;20025;-70
2022/06/18 04:05:15;;;;;;;15.55;7.47;;;;;;;18.93;79.07;101657.66;5071646;28;20029;-71
2022/06/18 04:07:42;;;;;;;12.25;6.75;;;;;;;18.95;79.40;101649.63;5072070;28;20384;-70
2022/06/18 04:10:10;;;;;;;10.10;6.72;;;;;;;18.97;78.48;101645.16;5072215;28;20533;-70
2022/06/18 04:12:36;;;;;;;13.70;7.18;;;;;;;18.94;78.32;101643.50;5071153;28;20111;-70
2022/06/18 04:15:01;;;;;;;11.68;8.05;;;;;;;19.01;78.47;101649.38;5072191;28;20116;-70
2022/06/18 04:17:26;;;;;;;12.13;8.02;;;;;;;19.03;78.12;101638.72;5072390;28;20031;-70
2022/06/18 04:19:52;;;;;;;8.60;6.55;;;;;;;19.05;78.40;101650.06;5070986;28;20108;-70
2022/06/18 04:22:17;;;;;;;9.65;6.82;;;;;;;19.05;78.07;101647.44;5072134;28;20028;-70
2022/06/18 04:24:43;;;;;;;10.55;6.95;;;;;;;19.06;78.97;101651.78;5072058;28;20024;-70
2022/06/18 04:27:08;;;;;;;13.10;7.55;;;;;;;19.12;78.16;101652.34;5071287;28;20017;-71
2022/06/18 04:29:34;;;;;;;9.88;7.80;;;;;;;19.13;77.97;101653.25;5072499;28;20016;-70
2022/06/18 04:32:00;;;;;;;18.83;7.88;;;;;;;19.13;78.84;101654.09;5075760;28;20081;-70
2022/06/18 04:34:27;;;;;;;10.95;7.40;;;;;;;19.21;78.48;101645.78;5074866;28;20078;-70
2022/06/18 04:36:52;;;;;;;10.60;7.32;;;;;;;19.22;79.40;101647.50;5075339;28;20519;-71
2022/06/18 04:39:18;;;;;;;9.48;7.43;;;;;;;19.32;79.09;101651.41;5075641;28;20036;-70
2022/06/18 04:41:43;;;;;;;11.50;7.85;;;;;;;19.33;78.20;101650.50;5074466;28;20031;-70
2022/06/18 04:44:09;;;;;;;14.15;8.25;;;;;;;19.41;77.48;101650.97;5075409;28;20388;-70
2022/06/18 04:46:34;;;;;;;13.40;8.52;;;;;;;19.42;79.00;101651.84;5075313;28;20103;-71
2022/06/18 04:49:00;;;;;;;12.80;8.20;;;;;;;19.43;78.90;101650.94;5074699;28;20025;-70
2022/06/18 04:51:25;;;;;;;12.05;8.20;;;;;;;19.47;77.91;101647.19;5075346;28;20044;-70
2022/06/18 04:53:51;;;;;;;10.43;8.32;;;;;;;19.50;77.43;101643.56;5074692;28;20049;-70
2022/06/18 04:56:16;;;;;;;8.98;7.93;;;;;;;19.61;78.08;101646.53;5074683;28;20055;-70
2022/06/18 04:58:42;;;;;;;12.95;8.07;;;;;;;19.66;78.16;101646.34;5074733;28;20028;-70
2022/06/18 05:01:13;;;;;;;12.32;7.78;;;;;;;19.72;78.10;101657.50;5075964;28;20043;-70
2022/06/18 05:03:38;;;;;;;10.10;7.70;;;;;;;19.77;77.81;101650.16;5074501;28;20025;-71
2022/06/18 05:06:04;;;;;;;12.38;8.45;;;;;;;19.78;76.60;101656.31;5075712;28;20040;-70
2022/06/18 05:08:29;;;;;;;8.52;7.72;;;;;;;19.81;77.13;101650.88;5074384;28;20016;-70
2022/06/18 05:10:54;;;;;;;13.05;8.95;;;;;;;19.87;76.07;101646.13;5075852;28;20515;-70
2022/06/18 05:13:20;;;;;;;15.18;8.60;;;;;;;19.94;75.54;101657.28;5075156;28;20020;-70
2022/06/18 05:15:47;;;;;;;11.23;8.27;;;;;;;19.98;76.34;101650.91;5074220;28;20498;-70
2022/06/18 05:18:15;;;;;;;12.52;8.57;;;;;;;20.05;74.89;101651.47;5075197;28;20035;-70
2022/06/18 05:20:40;;;;;;;9.13;8.00;;;;;;;20.11;76.12;101653.81;5074846;28;20023;-70
2022/06/18 05:23:06;;;;;;;10.80;7.90;;;;;;;20.16;76.01;101650.91;5074271;28;20028;-70
2022/06/18 05:25:31;;;;;;;11.43;8.15;;;;;;;20.20;74.82;101647.16;5075541;28;20043;-70
2022/06/18 05:27:57;;;;;;;12.05;7.60;;;;;;;20.32;75.07;101662.44;5075080;28;20024;-71
2022/06/18 05:30:25;;;;;;;10.15;7.68;;;;;;;20.39;75.13;101662.97;5074878;28;20051;-71
2022/06/18 05:32:51;;;;;;;10.70;7.20;;;;;;;20.46;75.83;101659.06;5075606;28;20104;-70
2022/06/18 05:35:16;;;;;;;11.25;8.30;;;;;;;20.50;75.08;101671.19;5075052;28;20025;-70
2022/06/18 05:37:42;;;;;;;15.07;8.38;;;;;;;20.55;75.08;101669.22;5073830;28;20031;-70
2022/06/18 05:40:08;;;;;;;14.40;8.27;;;;;;;20.59;75.32;101678.72;5075434;28;20024;-70
2022/06/18 05:42:34;;;;;;;13.30;9.90;;;;;;;20.67;70.72;101673.88;5074675;28;20109;-71
2022/06/18 05:44:59;;;;;;;13.18;9.13;;;;;;;20.74;71.96;101669.13;5073712;28;20047;-70
2022/06/18 05:47:27;;;;;;;10.98;8.85;;;;;;;20.78;73.92;101676.81;5074870;28;20499;-71
2022/06/18 05:49:56;;;;;;;11.77;9.15;;;;;;;20.92;71.74;101677.88;5073990;28;20039;-70
2022/06/18 05:52:22;;;;;;;15.43;10.07;;;;;;;20.97;72.79;101667.88;5074033;28;20051;-71
2022/06/18 05:54:50;;;;;;;14.07;10.30;;;;;;;21.05;70.87;101679.75;5074340;28;20032;-71
2022/06/18 05:57:16;;;;;;;11.20;7.95;;;;;;;21.10;72.76;101676.88;5074644;28;20025;-71
2022/06/18 05:59:41;;;;;;;10.00;8.48;;;;;;;21.15;72.25;101674.81;5073394;28;20035;-70
2022/06/18 06:02:09;;;;;;;12.10;9.45;;;;;;;21.26;70.38;101679.56;5074434;28;20058;-71
2022/06/18 06:04:35;;;;;;;11.32;9.00;;;;;;;21.30;70.57;101675.78;5073839;28;20028;-71
2022/06/18 06:07:00;;;;;;;13.02;8.90;;;;;;;21.33;70.80;101666.81;5074194;28;20495;-70
2022/06/18 06:12:11;;;;;;;13.57;7.47;;;;;;;21.52;70.11;101664.88;5073386;28;20036;-71
2022/06/18 06:14:38;;;;;;;12.80;8.00;;;;;;;21.59;70.76;101662.72;5073753;28;20031;-71
2022/06/18 06:17:04;;;;;;;12.68;8.38;;;;;;;21.64;70.98;101655.34;5073864;28;20028;-71
2022/06/18 06:19:30;;;;;;;12.25;9.02;;;;;;;21.70;68.51;101658.50;5073928;28;20032;-71
2022/06/18 06:21:55;;;;;;;11.88;9.38;;;;;;;21.80;68.76;101650.88;5073684;28;20032;-71
2022/06/18 06:24:20;;;;;;;13.05;10.40;;;;;;;21.85;66.25;101659.44;5073637;28;20115;-71
2022/06/18 06:26:46;;;;;;;13.55;9.00;;;;;;;21.87;68.58;101651.38;5072902;28;20024;-71
2022/06/18 06:29:11;;;;;;;15.20;8.63;;;;;;;21.98;67.23;101655.13;5073604;28;20111;-71
2022/06/18 06:31:37;;;;;;;13.10;8.30;;;;;;;22.02;66.76;101650.47;5073243;28;20104;-71
2022/06/18 06:34:02;;;;;;;12.88;9.00;;;;;;;22.03;67.90;101653.97;5072503;28;20054;-71
2022/06/18 06:36:28;;;;;;;17.17;9.07;;;;;;;22.12;64.32;101656.97;5073485;28;20028;-71
2022/06/18 06:38:53;;;;;;;12.57;7.90;;;;;;;22.19;65.68;101657.47;5072868;28;20090;-71
2022/06/18 06:41:25;;;;;;;13.43;7.90;;;;;;;22.24;67.49;101654.56;5072848;28;20021;-71
2022/06/18 06:43:51;;;;;;;12.60;7.78;;;;;;;22.31;65.76;101655.91;5073847;28;20029;-70
2022/06/18 06:46:17;;;;;;;15.20;7.80;;;;;;;22.44;64.13;101656.88;5073902;28;20052;-71
2022/06/18 06:48:43;;;;;;;15.43;7.38;;;;;;;22.52;64.60;101653.75;5072051;28;20032;-71
2022/06/18 06:51:14;;;;;;;11.65;7.50;;;;;;;22.57;62.71;101657.84;5072942;28;20016;-71
2022/06/18 06:53:40;;;;;;;12.57;7.80;;;;;;;22.62;62.23;101658.38;5072188;28;20048;-71
2022/06/18 06:58:51;;;;;;;13.13;6.70;;;;;;;22.84;64.17;101657.09;5072851;28;20032;-71
2022/06/18 07:01:16;;;;;;;13.95;8.18;;;;;;;22.88;62.05;101653.28;5072121;28;20024;-70
2022/06/18 07:03:42;;;;;;;16.00;8.27;;;;;;;22.96;60.84;101660.81;5072567;28;20468;-71
2022/06/18 07:06:07;;;;;;;18.48;7.47;;;;;;;22.97;63.10;101646.56;5073270;28;20028;-71
2022/06/18 07:08:32;;;;;;;16.55;8.57;;;;;;;23.06;63.84;101659.28;5072445;28;20032;-71
2022/06/18 07:10:58;;;;;;;16.48;8.40;;;;;;;23.13;62.61;101664.13;5073044;28;20388;-71
2022/06/18 07:13:23;;;;;;;16.33;8.75;;;;;;;23.23;63.40;101666.19;5072765;28;20115;-70
2022/06/18 07:15:51;;;;;;;15.60;8.40;;;;;;;23.25;64.32;101664.28;5071634;28;20067;-71
2022/06/18 07:18:31;;;;;;;13.93;9.35;;;;;;;23.32;61.37;101655.81;5072746;28;20120;-71
2022/06/18 07:20:56;;;;;;;15.18;8.20;;;;;;;23.36;62.48;101653.81;5072433;28;20480;-70
2022/06/18 07:23:22;;;;;;;14.30;8.75;;;;;;;23.38;62.65;101646.59;5072074;28;20063;-71
2022/06/18 07:25:47;;;;;;;14.90;9.38;;;;;;;23.42;60.65;101656.09;5072405;28;20101;-71
2022/06/18 07:28:12;;;;;;;17.88;8.60;;;;;;;23.41;61.71;101646.38;5072670;28;20032;-71
2022/06/18 07:30:38;;;;;;;13.52;8.93;;;;;;;23.50;60.37;101659.09;5071455;28;20499;-71
2022/06/18 07:33:04;;;;;;;15.50;7.75;;;;;;;23.55;62.01;101648.16;5072561;28;20028;-71
2022/06/18 07:35:31;;;;;;;15.45;8.75;;;;;;;23.64;61.04;101646.69;5072772;28;20033;-71
2022/06/18 07:37:58;;;;;;;16.13;8.63;;;;;;;23.79;61.31;101643.03;5071771;28;20020;-71
2022/06/18 07:40:25;;;;;;;14.45;8.50;;;;;;;23.91;60.85;101644.06;5072632;28;20020;-71
2022/06/18 07:42:53;;;;;;;15.75;8.27;;;;;;;23.97;60.17;101647.16;5072301;28;20021;-71
2022/06/18 07:45:24;;;;;;;19.70;9.82;;;;;;;24.05;59.20;101638.63;5071709;28;20094;-71
2022/06/18 07:47:50;;;;;;;13.52;9.60;;;;;;;24.12;58.09;101634.59;5072358;28;20021;-71
2022/06/18 07:50:18;;;;;;;13.18;8.30;;;;;;;24.13;58.19;101627.44;5071814;28;20025;-71
2022/06/18 07:52:44;;;;;;;16.08;8.55;;;;;;;24.28;61.02;101647.72;5072071;28;20048;-71
2022/06/18 07:55:23;;;;;;;15.90;8.25;;;;;;;24.34;60.48;101631.31;5072346;28;20107;-71
2022/06/18 07:57:49;;;;;;;15.02;8.45;;;;;;;24.47;60.05;101634.03;5071244;28;20021;-71
2022/06/18 08:00:17;;;;;;;14.45;7.95;;;;;;;24.55;59.55;101642.31;5072567;28;20081;-71
2022/06/18 08:02:43;;;;;;;14.52;9.10;;;;;;;24.65;57.62;101631.88;5071999;28;20387;-71
2022/06/18 08:05:12;;;;;;;16.55;7.70;;;;;;;24.76;57.56;101623.97;5075039;28;20028;-70
2022/06/18 08:07:37;;;;;;;14.20;7.53;;;;;;;24.86;60.36;101625.03;5075920;28;20434;-71
2022/06/18 08:10:05;;;;;;;14.25;9.82;;;;;;;24.95;56.09;101628.84;5076166;28;20052;-71
2022/06/18 08:12:31;;;;;;;19.40;8.43;;;;;;;24.99;58.01;101631.19;5075360;28;20058;-71
2022/06/18 08:14:58;;;;;;;18.52;9.52;;;;;;;25.10;55.57;101611.72;5075952;28;20028;-71
2022/06/18 08:17:25;;;;;;;18.75;9.25;;;;;;;25.20;56.54;101619.94;5076075;28;20034;-71
2022/06/18 08:19:50;;;;;;;14.57;8.35;;;;;;;25.32;57.25;101620.88;5074663;28;20405;-71
2022/06/18 08:22:15;;;;;;;18.45;8.60;;;;;;;25.39;55.35;101614.13;5076100;28;20017;-71
2022/06/18 08:24:41;;;;;;;13.43;7.68;;;;;;;25.49;56.49;101611.63;5075506;28;20052;-71
2022/06/18 08:27:07;;;;;;;13.20;7.97;;;;;;;25.54;54.93;101609.44;5074869;28;20059;-71
2022/06/18 08:29:34;;;;;;;15.48;7.28;;;;;;;25.57;55.75;101602.09;5075658;28;20024;-71
2022/06/18 08:32:00;;;;;;;17.35;7.88;;;;;;;25.63;56.79;101606.94;5075974;28;20392;-71
2022/06/18 08:34:25;;;;;;;17.27;8.05;;;;;;;25.71;56.09;101600.19;5075016;28;20472;-71
2022/06/18 08:36:50;;;;;;;14.50;7.00;;;;;;;25.82;54.79;101597.59;5075393;28;20052;-71
2022/06/18 08:39:16;;;;;;;17.27;7.85;;;;;;;25.85;56.01;101602.69;5075263;28;20095;-71
2022/06/18 08:42:29;;;;;;;10.15;7.18;;;;;;;26.01;54.76;101592.53;5075257;28;20036;-71
2022/06/18 08:45:03;;;;;;;15.03;7.00;;;;;;;26.12;54.64;101594.38;5053094;28;20110;-71
2022/06/18 08:47:50;;;;;;;12.00;6.75;;;;;;;26.29;56.00;101596.63;5052419;28;20090;-71
2022/06/18 08:50:41;;;;;;;17.75;7.30;;;;;;;26.39;53.48;101602.09;5067910;28;20035;-71
2022/06/18 08:53:47;;;;;;;13.90;6.80;;;;;;;26.49;52.00;101602.25;5075208;28;20044;-71
2022/06/18 08:56:25;;;;;;;11.95;6.60;;;;;;;26.58;48.74;101601.50;5075202;28;20043;-71
2022/06/18 08:59:03;;;;;;;15.32;6.55;;;;;;;26.61;52.93;101604.78;5075080;28;20095;-71
2022/06/18 09:01:51;;;;;;;14.73;7.55;;;;;;;26.70;51.31;101607.72;5074475;28;20052;-71
2022/06/18 09:04:35;;;;;;;15.80;6.60;;;;;;;26.84;51.47;101605.63;5075061;28;20135;-71
2022/06/18 09:07:19;;;;;;;14.45;7.00;;;;;;;26.98;51.68;101609.88;5075273;28;20373;-72
2022/06/18 09:10:20;;;;;;;14.18;7.07;;;;;;;27.06;50.40;101604.75;5074314;28;20024;-71
2022/06/18 09:12:55;;;;;;;16.50;6.80;;;;;;;27.22;50.34;101601.69;5074499;28;20025;-71
2022/06/18 09:15:36;;;;;;;16.00;5.78;;;;;;;27.34;51.21;101605.22;5073416;28;20040;-71
2022/06/18 09:18:09;;;;;;;11.18;5.70;;;;;;;27.44;48.22;101606.16;5074996;28;20036;-71
2022/06/18 09:20:44;;;;;;;11.38;5.75;;;;;;;27.53;50.25;101600.03;5074552;28;20032;-71
2022/06/18 09:23:24;;;;;;;16.52;6.10;;;;;;;27.62;49.29;101601.06;5073813;28;20021;-71
2022/06/18 09:25:51;;;;;;;17.50;6.15;;;;;;;27.80;49.29;101601.41;5074619;28;20107;-71
2022/06/18 09:28:24;;;;;;;14.65;6.40;;;;;;;27.95;48.78;101608.13;5074859;28;20028;-71
2022/06/18 09:31:02;;;;;;;12.27;6.68;;;;;;;28.02;49.74;101603.06;5073780;28;20031;-71
2022/06/18 09:33:36;;;;;;;19.17;7.53;;;;;;;27.96;47.45;101607.16;5074432;28;20645;-71
2022/06/18 09:36:11;;;;;;;14.10;6.80;;;;;;;27.87;46.93;101607.09;5073929;28;20033;-71
2022/06/18 09:38:42;;;;;;;13.00;5.80;;;;;;;27.87;49.86;101607.09;5074281;28;20055;-71
2022/06/18 09:41:13;;;;;;;16.30;7.38;;;;;;;28.03;47.39;101598.59;5074641;28;20025;-71
2022/06/18 09:43:57;;;;;;;13.73;6.30;;;;;;;28.10;48.04;101595.25;5073374;28;20024;-71
2022/06/18 09:46:26;;;;;;;16.05;7.32;;;;;;;28.18;46.64;101592.75;5074516;28;20028;-71
2022/06/18 09:48:52;;;;;;;16.02;7.22;;;;;;;28.24;48.06;101591.38;5074136;28;20050;-71
2022/06/18 09:51:29;;;;;;;14.13;6.22;;;;;;;28.27;48.92;101584.91;5073499;28;20062;-71
2022/06/18 09:54:03;;;;;;;14.63;6.63;;;;;;;28.45;46.43;101581.50;5073645;28;20059;-71
2022/06/18 09:56:39;;;;;;;13.68;6.50;;;;;;;28.51;48.88;101589.97;5073754;28;20059;-71
2022/06/18 09:59:17;;;;;;;13.90;7.07;;;;;;;28.53;49.75;101578.13;5074225;28;20475;-71
2022/06/18 10:01:45;;;;;;;16.20;7.10;;;;;;;28.61;48.07;101582.81;5073881;28;20017;-71
2022/06/18 10:07:00;;;;;;;11.85;7.03;;;;;;;28.99;48.63;101579.41;5074132;28;20449;-71
2022/06/18 10:09:34;;;;;;;12.68;7.18;;;;;;;29.21;48.84;101575.66;5074036;28;20033;-71
2022/06/18 10:12:12;;;;;;;14.05;7.50;;;;;;;29.22;45.17;101565.75;5073098;28;20021;-71
2022/06/18 10:14:37;;;;;;;16.48;7.20;;;;;;;29.34;47.75;101578.06;5073598;28;20043;-71
2022/06/18 10:17:24;;;;;;;14.45;6.97;;;;;;;29.40;47.60;101574.84;5073762;28;20024;-71
2022/06/18 10:20:06;;;;;;;15.75;7.25;;;;;;;29.47;47.82;101575.13;5072674;28;20357;-71
2022/06/18 10:22:55;;;;;;;17.42;7.18;;;;;;;29.49;45.97;101576.66;5073701;28;20024;-70
2022/06/18 10:25:41;;;;;;;14.32;7.22;;;;;;;29.53;47.55;101570.03;5072653;28;20056;-72
2022/06/18 10:28:28;;;;;;;16.23;8.30;;;;;;;29.58;44.56;101557.00;5073735;28;20086;-71
2022/06/18 10:31:00;;;;;;;15.23;6.85;;;;;;;29.84;45.50;101564.50;5073487;28;20043;-71
2022/06/18 10:33:37;;;;;;;15.35;7.18;;;;;;;29.97;44.47;101554.28;5072663;28;20036;-70
2022/06/18 10:36:21;;;;;;;11.98;6.78;;;;;;;30.09;46.24;101558.50;5073271;28;20033;-71
2022/06/18 10:39:19;;;;;;;17.45;7.35;;;;;;;30.19;45.40;101554.97;5073024;28;20031;-71
2022/06/18 10:42:24;;;;;;;12.23;6.50;;;;;;;30.39;45.39;101545.81;5072976;28;20037;-71
2022/06/18 10:44:49;;;;;;;24.10;7.55;;;;;;;30.42;43.73;101548.22;5069589;28;20033;-71
2022/06/18 10:47:17;;;;;;;19.00;7.83;;;;;;;30.58;46.34;101538.66;5072608;28;20086;-71
2022/06/18 10:49:44;;;;;;;18.73;7.55;;;;;;;30.62;43.51;101537.38;5072801;28;20031;-71
2022/06/18 10:52:18;;;;;;;14.68;7.70;;;;;;;30.76;45.99;101539.53;5073057;28;20024;-72
2022/06/18 10:54:45;;;;;;;15.57;7.10;;;;;;;30.83;46.07;101534.41;5071775;28;20048;-71
2022/06/18 10:57:22;;;;;;;14.50;7.57;;;;;;;30.90;43.52;101533.69;5073240;28;20540;-71
2022/06/18 10:59:47;;;;;;;14.52;7.15;;;;;;;30.97;41.79;101532.06;5072581;28;20105;-71
2022/06/18 11:02:37;;;;;;;16.05;7.82;;;;;;;31.07;44.00;101529.31;5072341;28;20444;-71
2022/06/18 11:05:32;;;;;;;19.27;7.45;;;;;;;31.27;43.22;101532.69;5070039;28;20055;-71
2022/06/18 11:08:00;;;;;;;13.82;7.70;;;;;;;31.21;42.05;101522.53;5072300;28;20029;-71
2022/06/18 11:10:43;;;;;;;14.38;7.50;;;;;;;31.48;42.23;101519.75;5072789;28;20563;-71
2022/06/18 11:13:29;;;;;;;14.75;7.43;;;;;;;31.59;41.30;101518.69;5072813;28;20139;-72
2022/06/18 11:16:11;;;;;;;17.17;7.78;;;;;;;31.69;41.11;101505.94;5071660;28;20028;-72
2022/06/18 11:18:48;;;;;;;16.13;7.50;;;;;;;31.80;40.33;101503.97;5072569;28;20493;-72
2022/06/18 11:21:33;;;;;;;11.85;6.95;;;;;;;31.98;40.80;101503.94;5072130;28;20032;-72
2022/06/18 11:24:02;;;;;;;11.85;6.35;;;;;;;32.05;41.53;101491.53;5072646;28;20078;-71
2022/06/18 11:26:29;;;;;;;15.50;6.95;;;;;;;32.31;39.63;101491.44;5072898;28;20028;-71
2022/06/18 11:29:09;;;;;;;13.07;6.50;;;;;;;32.40;40.74;101488.63;5071781;28;20383;-71
2022/06/18 11:31:42;;;;;;;17.30;6.65;;;;;;;32.47;38.27;101490.69;5072371;28;20539;-72
2022/06/18 11:34:22;;;;;;;12.73;6.00;;;;;;;32.72;39.92;101481.66;5072656;28;20028;-72
2022/06/18 11:36:52;;;;;;;15.10;6.63;;;;;;;32.80;37.20;101476.28;5071486;28;20379;-71
2022/06/18 11:39:30;;;;;;;13.60;6.10;;;;;;;33.11;39.67;101470.25;5074836;28;20396;-72
2022/06/18 11:42:08;;;;;;;14.18;6.25;;;;;;;33.26;34.78;101468.59;5076270;28;20029;-72
2022/06/18 11:44:53;;;;;;;17.45;5.47;;;;;;;33.30;35.08;101460.97;5076016;28;20484;-71
2022/06/18 11:47:24;;;;;;;13.88;7.85;;;;;;;33.65;35.37;101464.31;5076587;28;20476;-72
2022/06/18 11:49:57;;;;;;;13.23;6.60;;;;;;;34.18;35.39;101455.56;5075658;28;20024;-72
2022/06/18 11:52:29;;;;;;;14.23;6.53;;;;;;;34.64;33.36;101452.97;5076611;28;20064;-72